sensor_id;sensor_type;location;lat;lon;timestamp;P1;durP1;ratioP1;P2;durP2;ratioP2
7983;SDS011;4037;47.980;10.172;2023-06-22T00:00:31;6.73;;;3.73;;
7983;SDS011;4037;47.980;10.172;2023-06-22T00:02:57;7.53;;;3.92;;
7983;SDS011;4037;47.980;10.172;2023-06-22T00:05:23;7.45;;;3.75;;
7983;SDS011;4037;47.980;10.172;2023-06-22T00:07:49;9.37;;;3.77;;
7983;SDS011;4037;47.980;10.172;2023-06-22T00:10:15;11.68;;;4.43;;
7983;SDS011;4037;47.980;10.172;2023-06-22T00:12:41;5.40;;;3.70;;
7983;SDS011;4037;47.980;10.172;2023-06-22T00:15:07;12.10;;;3.63;;
7983;SDS011;4037;47.980;10.172;2023-06-22T00:17:33;10.30;;;4.53;;
7983;SDS011;4037;47.980;10.172;2023-06-22T00:19:59;8.85;;;3.45;;
7983;SDS011;4037;47.980;10.172;2023-06-22T00:22:25;10.32;;;4.07;;
7983;SDS011;4037;47.980;10.172;2023-06-22T00:24:53;7.47;;;4.05;;
7983;SDS011;4037;47.980;10.172;2023-06-22T00:27:19;8.25;;;4.20;;
7983;SDS011;4037;47.980;10.172;2023-06-22T00:29:45;5.50;;;3.40;;
7983;SDS011;4037;47.980;10.172;2023-06-22T00:32:11;14.30;;;4.13;;
7983;SDS011;4037;47.980;10.172;2023-06-22T00:34:37;11.25;;;4.00;;
7983;SDS011;4037;47.980;10.172;2023-06-22T00:37:03;9.70;;;4.68;;
7983;SDS011;4037;47.980;10.172;2023-06-22T00:39:29;7.65;;;3.92;;
7983;SDS011;4037;47.980;10.172;2023-06-22T00:41:58;8.75;;;4.13;;
7983;SDS011;4037;47.980;10.172;2023-06-22T00:44:24;11.63;;;3.70;;
7983;SDS011;4037;47.980;10.172;2023-06-22T00:46:54;9.13;;;4.57;;
7983;SDS011;4037;47.980;10.172;2023-06-22T00:49:20;8.05;;;3.88;;
7983;SDS011;4037;47.980;10.172;2023-06-22T00:51:46;8.38;;;3.60;;
7983;SDS011;4037;47.980;10.172;2023-06-22T00:54:12;9.88;;;4.43;;
7983;SDS011;4037;47.980;10.172;2023-06-22T00:56:39;7.57;;;3.88;;
7983;SDS011;4037;47.980;10.172;2023-06-22T00:59:06;8.02;;;4.00;;
7983;SDS011;4037;47.980;10.172;2023-06-22T01:01:32;4.75;;;3.20;;
7983;SDS011;4037;47.980;10.172;2023-06-22T01:03:59;8.52;;;3.72;;
7983;SDS011;4037;47.980;10.172;2023-06-22T01:06:26;10.38;;;3.95;;
7983;SDS011;4037;47.980;10.172;2023-06-22T01:09:02;6.20;;;3.60;;
7983;SDS011;4037;47.980;10.172;2023-06-22T01:11:41;6.43;;;4.20;;
7983;SDS011;4037;47.980;10.172;2023-06-22T01:14:21;6.55;;;3.92;;
7983;SDS011;4037;47.980;10.172;2023-06-22T01:16:50;7.68;;;3.95;;
7983;SDS011;4037;47.980;10.172;2023-06-22T01:19:24;11.32;;;4.97;;
7983;SDS011;4037;47.980;10.172;2023-06-22T01:21:53;9.45;;;4.53;;
7983;SDS011;4037;47.980;10.172;2023-06-22T01:24:22;9.63;;;4.05;;
7983;SDS011;4037;47.980;10.172;2023-06-22T01:29:30;7.95;;;4.15;;
7983;SDS011;4037;47.980;10.172;2023-06-22T01:31:57;12.15;;;5.85;;
7983;SDS011;4037;47.980;10.172;2023-06-22T01:34:24;9.05;;;5.22;;
7983;SDS011;4037;47.980;10.172;2023-06-22T01:36:51;6.43;;;4.03;;
7983;SDS011;4037;47.980;10.172;2023-06-22T01:39:18;10.55;;;5.47;;
7983;SDS011;4037;47.980;10.172;2023-06-22T01:41:45;8.63;;;4.80;;
7983;SDS011;4037;47.980;10.172;2023-06-22T01:44:11;9.33;;;3.90;;
7983;SDS011;4037;47.980;10.172;2023-06-22T01:46:37;7.03;;;3.77;;
7983;SDS011;4037;47.980;10.172;2023-06-22T01:49:04;8.27;;;4.33;;
7983;SDS011;4037;47.980;10.172;2023-06-22T01:51:30;7.88;;;4.47;;
7983;SDS011;4037;47.980;10.172;2023-06-22T01:53:56;9.07;;;4.43;;
7983;SDS011;4037;47.980;10.172;2023-06-22T01:56:22;8.18;;;4.80;;
7983;SDS011;4037;47.980;10.172;2023-06-22T01:58:50;11.65;;;4.80;;
7983;SDS011;4037;47.980;10.172;2023-06-22T02:01:18;7.80;;;4.10;;
7983;SDS011;4037;47.980;10.172;2023-06-22T02:06:45;7.07;;;4.20;;
7983;SDS011;4037;47.980;10.172;2023-06-22T02:09:12;7.57;;;4.68;;
7983;SDS011;4037;47.980;10.172;2023-06-22T02:11:40;7.03;;;3.90;;
7983;SDS011;4037;47.980;10.172;2023-06-22T02:14:06;7.33;;;4.43;;
7983;SDS011;4037;47.980;10.172;2023-06-22T02:16:33;11.77;;;4.47;;
7983;SDS011;4037;47.980;10.172;2023-06-22T02:19:00;5.03;;;3.88;;
7983;SDS011;4037;47.980;10.172;2023-06-22T02:21:28;8.23;;;4.50;;
7983;SDS011;4037;47.980;10.172;2023-06-22T02:23:54;6.57;;;4.13;;
7983;SDS011;4037;47.980;10.172;2023-06-22T02:26:20;8.43;;;4.60;;
7983;SDS011;4037;47.980;10.172;2023-06-22T02:28:46;12.77;;;4.87;;
7983;SDS011;4037;47.980;10.172;2023-06-22T02:31:12;8.77;;;4.63;;
7983;SDS011;4037;47.980;10.172;2023-06-22T02:33:38;12.33;;;5.77;;
7983;SDS011;4037;47.980;10.172;2023-06-22T02:36:04;9.77;;;5.13;;
7983;SDS011;4037;47.980;10.172;2023-06-22T02:38:34;7.60;;;3.93;;
7983;SDS011;4037;47.980;10.172;2023-06-22T02:41:01;7.97;;;4.20;;
7983;SDS011;4037;47.980;10.172;2023-06-22T02:43:27;9.50;;;4.43;;
7983;SDS011;4037;47.980;10.172;2023-06-22T02:45:53;7.37;;;4.57;;
7983;SDS011;4037;47.980;10.172;2023-06-22T02:48:19;9.00;;;4.77;;
7983;SDS011;4037;47.980;10.172;2023-06-22T02:50:45;9.00;;;5.07;;
7983;SDS011;4037;47.980;10.172;2023-06-22T02:53:11;10.50;;;5.00;;
7983;SDS011;4037;47.980;10.172;2023-06-22T02:55:37;6.90;;;4.70;;
7983;SDS011;4037;47.980;10.172;2023-06-22T02:58:04;8.77;;;4.77;;
7983;SDS011;4037;47.980;10.172;2023-06-22T03:00:31;8.37;;;4.87;;
7983;SDS011;4037;47.980;10.172;2023-06-22T03:02:57;6.63;;;4.87;;
7983;SDS011;4037;47.980;10.172;2023-06-22T03:05:23;10.83;;;5.07;;
7983;SDS011;4037;47.980;10.172;2023-06-22T03:07:49;6.73;;;4.90;;
7983;SDS011;4037;47.980;10.172;2023-06-22T03:10:16;7.07;;;4.80;;
7983;SDS011;4037;47.980;10.172;2023-06-22T03:12:42;7.10;;;4.87;;
7983;SDS011;4037;47.980;10.172;2023-06-22T03:15:09;8.87;;;4.70;;
7983;SDS011;4037;47.980;10.172;2023-06-22T03:17:36;6.97;;;4.50;;
7983;SDS011;4037;47.980;10.172;2023-06-22T03:20:03;6.63;;;4.77;;
7983;SDS011;4037;47.980;10.172;2023-06-22T03:22:39;9.63;;;4.73;;
7983;SDS011;4037;47.980;10.172;2023-06-22T03:25:06;6.63;;;4.13;;
7983;SDS011;4037;47.980;10.172;2023-06-22T03:27:44;11.23;;;4.87;;
7983;SDS011;4037;47.980;10.172;2023-06-22T03:30:11;7.60;;;4.63;;
7983;SDS011;4037;47.980;10.172;2023-06-22T03:32:37;9.83;;;5.23;;
7983;SDS011;4037;47.980;10.172;2023-06-22T03:35:03;10.30;;;5.90;;
7983;SDS011;4037;47.980;10.172;2023-06-22T03:37:31;8.47;;;5.37;;
7983;SDS011;4037;47.980;10.172;2023-06-22T03:39:57;8.97;;;5.37;;
7983;SDS011;4037;47.980;10.172;2023-06-22T03:42:23;7.17;;;4.90;;
7983;SDS011;4037;47.980;10.172;2023-06-22T03:44:49;11.20;;;5.83;;
7983;SDS011;4037;47.980;10.172;2023-06-22T03:47:15;8.17;;;5.23;;
7983;SDS011;4037;47.980;10.172;2023-06-22T03:49:41;12.93;;;6.37;;
7983;SDS011;4037;47.980;10.172;2023-06-22T03:52:07;7.87;;;5.17;;
7983;SDS011;4037;47.980;10.172;2023-06-22T03:54:33;10.73;;;6.10;;
7983;SDS011;4037;47.980;10.172;2023-06-22T03:56:59;10.63;;;5.60;;
7983;SDS011;4037;47.980;10.172;2023-06-22T03:59:25;11.13;;;6.40;;
7983;SDS011;4037;47.980;10.172;2023-06-22T04:01:51;8.10;;;5.50;;
7983;SDS011;4037;47.980;10.172;2023-06-22T04:04:17;9.40;;;5.03;;
7983;SDS011;4037;47.980;10.172;2023-06-22T04:06:43;12.13;;;5.27;;
7983;SDS011;4037;47.980;10.172;2023-06-22T04:09:09;8.17;;;5.17;;
7983;SDS011;4037;47.980;10.172;2023-06-22T04:11:35;7.40;;;4.90;;
7983;SDS011;4037;47.980;10.172;2023-06-22T04:14:02;7.70;;;5.13;;
7983;SDS011;4037;47.980;10.172;2023-06-22T04:16:28;7.93;;;5.20;;
7983;SDS011;4037;47.980;10.172;2023-06-22T04:18:54;7.93;;;5.37;;
7983;SDS011;4037;47.980;10.172;2023-06-22T04:21:19;8.67;;;5.83;;
7983;SDS011;4037;47.980;10.172;2023-06-22T04:23:46;8.30;;;5.40;;
7983;SDS011;4037;47.980;10.172;2023-06-22T04:26:12;11.30;;;5.70;;
7983;SDS011;4037;47.980;10.172;2023-06-22T04:28:39;12.13;;;6.45;;
7983;SDS011;4037;47.980;10.172;2023-06-22T04:31:05;10.27;;;6.47;;
7983;SDS011;4037;47.980;10.172;2023-06-22T04:33:31;10.63;;;5.20;;
7983;SDS011;4037;47.980;10.172;2023-06-22T04:35:58;8.87;;;4.73;;
7983;SDS011;4037;47.980;10.172;2023-06-22T04:38:26;12.60;;;5.60;;
7983;SDS011;4037;47.980;10.172;2023-06-22T04:40:52;8.43;;;5.00;;
7983;SDS011;4037;47.980;10.172;2023-06-22T04:43:18;9.20;;;5.20;;
7983;SDS011;4037;47.980;10.172;2023-06-22T04:45:44;9.27;;;5.60;;
7983;SDS011;4037;47.980;10.172;2023-06-22T04:48:10;8.20;;;4.83;;
7983;SDS011;4037;47.980;10.172;2023-06-22T04:50:40;9.73;;;5.27;;
7983;SDS011;4037;47.980;10.172;2023-06-22T04:53:06;8.15;;;4.90;;
7983;SDS011;4037;47.980;10.172;2023-06-22T04:55:34;12.03;;;5.83;;
7983;SDS011;4037;47.980;10.172;2023-06-22T04:58:02;8.70;;;5.60;;
7983;SDS011;4037;47.980;10.172;2023-06-22T05:00:30;7.87;;;5.43;;
7983;SDS011;4037;47.980;10.172;2023-06-22T05:02:56;9.57;;;5.73;;
7983;SDS011;4037;47.980;10.172;2023-06-22T05:05:26;9.82;;;5.57;;
7983;SDS011;4037;47.980;10.172;2023-06-22T05:07:51;10.43;;;5.67;;
7983;SDS011;4037;47.980;10.172;2023-06-22T05:10:18;7.13;;;5.53;;
7983;SDS011;4037;47.980;10.172;2023-06-22T05:12:44;9.83;;;5.43;;
7983;SDS011;4037;47.980;10.172;2023-06-22T05:15:10;7.20;;;5.23;;
7983;SDS011;4037;47.980;10.172;2023-06-22T05:17:36;13.05;;;6.53;;
7983;SDS011;4037;47.980;10.172;2023-06-22T05:20:10;8.53;;;5.33;;
7983;SDS011;4037;47.980;10.172;2023-06-22T05:22:37;12.43;;;6.18;;
7983;SDS011;4037;47.980;10.172;2023-06-22T05:25:04;7.23;;;5.13;;
7983;SDS011;4037;47.980;10.172;2023-06-22T05:27:31;10.47;;;5.90;;
7983;SDS011;4037;47.980;10.172;2023-06-22T05:29:57;9.00;;;5.90;;
7983;SDS011;4037;47.980;10.172;2023-06-22T05:32:23;9.80;;;5.97;;
7983;SDS011;4037;47.980;10.172;2023-06-22T05:34:49;11.67;;;5.73;;
7983;SDS011;4037;47.980;10.172;2023-06-22T05:37:15;8.97;;;5.63;;
7983;SDS011;4037;47.980;10.172;2023-06-22T05:39:41;10.73;;;6.40;;
7983;SDS011;4037;47.980;10.172;2023-06-22T05:42:07;13.45;;;6.20;;
7983;SDS011;4037;47.980;10.172;2023-06-22T05:44:33;7.87;;;5.63;;
7983;SDS011;4037;47.980;10.172;2023-06-22T05:46:59;8.87;;;5.37;;
7983;SDS011;4037;47.980;10.172;2023-06-22T05:49:25;11.87;;;6.43;;
7983;SDS011;4037;47.980;10.172;2023-06-22T05:51:57;6.87;;;5.33;;
7983;SDS011;4037;47.980;10.172;2023-06-22T05:54:23;9.27;;;5.87;;
7983;SDS011;4037;47.980;10.172;2023-06-22T05:56:49;9.90;;;5.83;;
7983;SDS011;4037;47.980;10.172;2023-06-22T05:59:15;7.20;;;5.63;;
7983;SDS011;4037;47.980;10.172;2023-06-22T06:01:41;10.17;;;6.47;;
7983;SDS011;4037;47.980;10.172;2023-06-22T06:04:07;8.43;;;6.60;;
7983;SDS011;4037;47.980;10.172;2023-06-22T06:06:33;11.20;;;6.37;;
7983;SDS011;4037;47.980;10.172;2023-06-22T06:09:02;11.05;;;6.32;;
7983;SDS011;4037;47.980;10.172;2023-06-22T06:11:28;10.63;;;6.23;;
7983;SDS011;4037;47.980;10.172;2023-06-22T06:13:54;8.50;;;5.90;;
7983;SDS011;4037;47.980;10.172;2023-06-22T06:16:20;12.00;;;6.40;;
7983;SDS011;4037;47.980;10.172;2023-06-22T06:18:46;9.90;;;5.93;;
7983;SDS011;4037;47.980;10.172;2023-06-22T06:21:14;12.68;;;6.30;;
7983;SDS011;4037;47.980;10.172;2023-06-22T06:23:40;11.95;;;7.38;;
7983;SDS011;4037;47.980;10.172;2023-06-22T06:26:07;10.38;;;6.60;;
7983;SDS011;4037;47.980;10.172;2023-06-22T06:28:33;11.50;;;7.05;;
7983;SDS011;4037;47.980;10.172;2023-06-22T06:30:59;12.87;;;6.60;;
7983;SDS011;4037;47.980;10.172;2023-06-22T06:33:25;13.80;;;5.82;;
7983;SDS011;4037;47.980;10.172;2023-06-22T06:35:51;10.18;;;6.50;;
7983;SDS011;4037;47.980;10.172;2023-06-22T06:38:17;9.73;;;5.65;;
7983;SDS011;4037;47.980;10.172;2023-06-22T06:40:43;12.00;;;6.18;;
7983;SDS011;4037;47.980;10.172;2023-06-22T06:43:10;9.48;;;5.45;;
7983;SDS011;4037;47.980;10.172;2023-06-22T06:45:36;9.50;;;5.60;;
7983;SDS011;4037;47.980;10.172;2023-06-22T06:48:02;11.18;;;5.75;;
7983;SDS011;4037;47.980;10.172;2023-06-22T06:50:28;8.90;;;5.82;;
7983;SDS011;4037;47.980;10.172;2023-06-22T06:52:54;12.25;;;6.03;;
7983;SDS011;4037;47.980;10.172;2023-06-22T06:55:21;11.38;;;6.82;;
7983;SDS011;4037;47.980;10.172;2023-06-22T06:57:50;10.27;;;6.72;;
7983;SDS011;4037;47.980;10.172;2023-06-22T07:00:17;9.10;;;6.13;;
7983;SDS011;4037;47.980;10.172;2023-06-22T07:02:44;7.57;;;5.97;;
7983;SDS011;4037;47.980;10.172;2023-06-22T07:05:10;9.25;;;6.25;;
7983;SDS011;4037;47.980;10.172;2023-06-22T07:07:36;11.43;;;5.88;;
7983;SDS011;4037;47.980;10.172;2023-06-22T07:10:03;10.70;;;7.03;;
7983;SDS011;4037;47.980;10.172;2023-06-22T07:12:29;11.85;;;6.45;;
7983;SDS011;4037;47.980;10.172;2023-06-22T07:15:01;16.70;;;5.90;;
7983;SDS011;4037;47.980;10.172;2023-06-22T07:17:27;10.57;;;6.18;;
7983;SDS011;4037;47.980;10.172;2023-06-22T07:19:54;10.80;;;6.07;;
7983;SDS011;4037;47.980;10.172;2023-06-22T07:22:20;12.48;;;6.15;;
7983;SDS011;4037;47.980;10.172;2023-06-22T07:24:46;10.43;;;6.00;;
7983;SDS011;4037;47.980;10.172;2023-06-22T07:27:12;10.43;;;6.47;;
7983;SDS011;4037;47.980;10.172;2023-06-22T07:29:38;10.73;;;6.30;;
7983;SDS011;4037;47.980;10.172;2023-06-22T07:32:05;13.43;;;6.50;;
7983;SDS011;4037;47.980;10.172;2023-06-22T07:34:31;8.80;;;5.47;;
7983;SDS011;4037;47.980;10.172;2023-06-22T07:36:58;10.90;;;5.30;;
7983;SDS011;4037;47.980;10.172;2023-06-22T07:39:24;11.82;;;6.10;;
7983;SDS011;4037;47.980;10.172;2023-06-22T07:41:51;10.60;;;5.70;;
7983;SDS011;4037;47.980;10.172;2023-06-22T07:44:18;8.77;;;5.63;;
7983;SDS011;4037;47.980;10.172;2023-06-22T07:46:44;12.23;;;6.22;;
7983;SDS011;4037;47.980;10.172;2023-06-22T07:49:10;12.20;;;5.65;;
7983;SDS011;4037;47.980;10.172;2023-06-22T07:51:36;10.15;;;6.43;;
7983;SDS011;4037;47.980;10.172;2023-06-22T07:54:02;11.45;;;6.60;;
7983;SDS011;4037;47.980;10.172;2023-06-22T07:56:28;10.85;;;5.93;;
7983;SDS011;4037;47.980;10.172;2023-06-22T07:58:54;10.75;;;6.45;;
7983;SDS011;4037;47.980;10.172;2023-06-22T08:01:23;12.85;;;6.90;;
7983;SDS011;4037;47.980;10.172;2023-06-22T08:03:49;15.52;;;6.38;;
7983;SDS011;4037;47.980;10.172;2023-06-22T08:06:15;12.80;;;6.57;;
7983;SDS011;4037;47.980;10.172;2023-06-22T08:08:41;12.45;;;5.63;;
7983;SDS011;4037;47.980;10.172;2023-06-22T08:11:08;13.45;;;5.30;;
7983;SDS011;4037;47.980;10.172;2023-06-22T08:13:34;8.55;;;5.07;;
7983;SDS011;4037;47.980;10.172;2023-06-22T08:16:00;9.82;;;5.55;;
7983;SDS011;4037;47.980;10.172;2023-06-22T08:18:26;9.82;;;5.65;;
7983;SDS011;4037;47.980;10.172;2023-06-22T08:20:52;11.60;;;6.15;;
7983;SDS011;4037;47.980;10.172;2023-06-22T08:23:18;9.05;;;5.72;;
7983;SDS011;4037;47.980;10.172;2023-06-22T08:25:45;11.07;;;6.28;;
7983;SDS011;4037;47.980;10.172;2023-06-22T08:28:11;8.05;;;5.60;;
7983;SDS011;4037;47.980;10.172;2023-06-22T08:30:38;12.25;;;5.85;;
7983;SDS011;4037;47.980;10.172;2023-06-22T08:33:04;11.45;;;7.18;;
7983;SDS011;4037;47.980;10.172;2023-06-22T08:35:30;9.40;;;5.40;;
7983;SDS011;4037;47.980;10.172;2023-06-22T08:37:56;10.25;;;5.57;;
7983;SDS011;4037;47.980;10.172;2023-06-22T08:40:23;8.82;;;5.63;;
7983;SDS011;4037;47.980;10.172;2023-06-22T08:42:49;11.95;;;5.78;;
7983;SDS011;4037;47.980;10.172;2023-06-22T08:45:15;12.70;;;5.57;;
7983;SDS011;4037;47.980;10.172;2023-06-22T08:47:41;9.30;;;5.18;;
7983;SDS011;4037;47.980;10.172;2023-06-22T08:50:08;10.13;;;6.40;;
7983;SDS011;4037;47.980;10.172;2023-06-22T08:52:35;13.13;;;5.55;;
7983;SDS011;4037;47.980;10.172;2023-06-22T08:55:01;9.30;;;5.68;;
7983;SDS011;4037;47.980;10.172;2023-06-22T08:57:27;12.95;;;6.55;;
7983;SDS011;4037;47.980;10.172;2023-06-22T08:59:54;11.43;;;4.95;;
7983;SDS011;4037;47.980;10.172;2023-06-22T09:02:23;8.55;;;5.45;;
7983;SDS011;4037;47.980;10.172;2023-06-22T09:04:50;12.70;;;6.38;;
7983;SDS011;4037;47.980;10.172;2023-06-22T09:07:21;11.82;;;6.20;;
7983;SDS011;4037;47.980;10.172;2023-06-22T09:09:48;10.32;;;5.88;;
7983;SDS011;4037;47.980;10.172;2023-06-22T09:12:14;10.73;;;5.82;;
7983;SDS011;4037;47.980;10.172;2023-06-22T09:14:40;11.88;;;5.68;;
7983;SDS011;4037;47.980;10.172;2023-06-22T09:17:06;9.70;;;6.00;;
7983;SDS011;4037;47.980;10.172;2023-06-22T09:19:32;8.52;;;5.40;;
7983;SDS011;4037;47.980;10.172;2023-06-22T09:21:58;8.95;;;5.28;;
7983;SDS011;4037;47.980;10.172;2023-06-22T09:24:25;11.88;;;5.20;;
7983;SDS011;4037;47.980;10.172;2023-06-22T09:26:51;9.32;;;5.75;;
7983;SDS011;4037;47.980;10.172;2023-06-22T09:29:17;9.95;;;5.00;;
7983;SDS011;4037;47.980;10.172;2023-06-22T09:31:43;10.00;;;4.90;;
7983;SDS011;4037;47.980;10.172;2023-06-22T09:34:09;13.10;;;5.88;;
7983;SDS011;4037;47.980;10.172;2023-06-22T09:36:35;6.53;;;4.60;;
7983;SDS011;4037;47.980;10.172;2023-06-22T09:39:02;9.13;;;5.72;;
7983;SDS011;4037;47.980;10.172;2023-06-22T09:41:31;8.82;;;5.45;;
7983;SDS011;4037;47.980;10.172;2023-06-22T09:43:57;12.38;;;6.15;;
7983;SDS011;4037;47.980;10.172;2023-06-22T09:46:23;11.32;;;5.47;;
7983;SDS011;4037;47.980;10.172;2023-06-22T09:48:53;11.38;;;5.90;;
7983;SDS011;4037;47.980;10.172;2023-06-22T09:51:18;9.88;;;5.13;;
7983;SDS011;4037;47.980;10.172;2023-06-22T09:53:48;7.60;;;5.45;;
7983;SDS011;4037;47.980;10.172;2023-06-22T09:56:15;11.23;;;5.05;;
7983;SDS011;4037;47.980;10.172;2023-06-22T09:58:45;10.45;;;5.45;;
7983;SDS011;4037;47.980;10.172;2023-06-22T10:01:11;13.20;;;5.63;;
7983;SDS011;4037;47.980;10.172;2023-06-22T10:03:39;8.65;;;5.50;;
7983;SDS011;4037;47.980;10.172;2023-06-22T10:06:06;9.13;;;4.30;;
7983;SDS011;4037;47.980;10.172;2023-06-22T10:08:32;6.97;;;3.95;;
7983;SDS011;4037;47.980;10.172;2023-06-22T10:10:58;7.47;;;5.40;;
7983;SDS011;4037;47.980;10.172;2023-06-22T10:13:24;9.15;;;4.97;;
7983;SDS011;4037;47.980;10.172;2023-06-22T10:15:50;14.85;;;5.50;;
7983;SDS011;4037;47.980;10.172;2023-06-22T10:18:17;9.80;;;4.55;;
7983;SDS011;4037;47.980;10.172;2023-06-22T10:20:43;9.68;;;5.40;;
7983;SDS011;4037;47.980;10.172;2023-06-22T10:23:09;15.43;;;4.68;;
7983;SDS011;4037;47.980;10.172;2023-06-22T10:25:35;10.18;;;5.00;;
7983;SDS011;4037;47.980;10.172;2023-06-22T10:28:01;10.70;;;4.82;;
7983;SDS011;4037;47.980;10.172;2023-06-22T10:30:27;13.35;;;6.07;;
7983;SDS011;4037;47.980;10.172;2023-06-22T10:32:54;6.72;;;5.07;;
7983;SDS011;4037;47.980;10.172;2023-06-22T10:35:20;11.00;;;6.05;;
7983;SDS011;4037;47.980;10.172;2023-06-22T10:37:46;11.13;;;5.50;;
7983;SDS011;4037;47.980;10.172;2023-06-22T10:40:13;9.48;;;5.57;;
7983;SDS011;4037;47.980;10.172;2023-06-22T10:42:40;11.38;;;6.18;;
7983;SDS011;4037;47.980;10.172;2023-06-22T10:45:06;9.18;;;5.03;;
7983;SDS011;4037;47.980;10.172;2023-06-22T10:47:33;9.38;;;5.15;;
7983;SDS011;4037;47.980;10.172;2023-06-22T10:49:59;9.77;;;6.05;;
7983;SDS011;4037;47.980;10.172;2023-06-22T10:52:25;14.30;;;7.65;;
7983;SDS011;4037;47.980;10.172;2023-06-22T10:54:51;12.02;;;7.07;;
7983;SDS011;4037;47.980;10.172;2023-06-22T10:57:17;13.05;;;6.40;;
7983;SDS011;4037;47.980;10.172;2023-06-22T10:59:43;10.48;;;5.55;;
7983;SDS011;4037;47.980;10.172;2023-06-22T11:02:09;11.73;;;5.75;;
7983;SDS011;4037;47.980;10.172;2023-06-22T11:04:35;12.32;;;6.78;;
7983;SDS011;4037;47.980;10.172;2023-06-22T11:07:01;14.82;;;7.15;;
7983;SDS011;4037;47.980;10.172;2023-06-22T11:09:27;11.43;;;6.05;;
7983;SDS011;4037;47.980;10.172;2023-06-22T11:11:53;13.43;;;6.75;;
7983;SDS011;4037;47.980;10.172;2023-06-22T11:14:19;9.98;;;6.70;;
7983;SDS011;4037;47.980;10.172;2023-06-22T11:16:45;14.55;;;6.40;;
7983;SDS011;4037;47.980;10.172;2023-06-22T11:19:11;10.27;;;6.72;;
7983;SDS011;4037;47.980;10.172;2023-06-22T11:21:37;15.43;;;7.15;;
7983;SDS011;4037;47.980;10.172;2023-06-22T11:24:03;11.48;;;6.53;;
7983;SDS011;4037;47.980;10.172;2023-06-22T11:26:30;12.05;;;5.65;;
7983;SDS011;4037;47.980;10.172;2023-06-22T11:28:56;9.63;;;6.32;;
7983;SDS011;4037;47.980;10.172;2023-06-22T11:31:22;8.55;;;5.80;;
7983;SDS011;4037;47.980;10.172;2023-06-22T11:33:49;13.15;;;6.88;;
7983;SDS011;4037;47.980;10.172;2023-06-22T11:36:15;11.35;;;5.93;;
7983;SDS011;4037;47.980;10.172;2023-06-22T11:38:41;11.63;;;6.57;;
7983;SDS011;4037;47.980;10.172;2023-06-22T11:41:08;8.98;;;5.38;;
7983;SDS011;4037;47.980;10.172;2023-06-22T11:43:34;8.90;;;5.50;;
7983;SDS011;4037;47.980;10.172;2023-06-22T11:46:01;13.00;;;6.45;;
7983;SDS011;4037;47.980;10.172;2023-06-22T11:48:28;10.00;;;5.78;;
7983;SDS011;4037;47.980;10.172;2023-06-22T11:50:54;13.55;;;6.18;;
7983;SDS011;4037;47.980;10.172;2023-06-22T11:53:20;13.00;;;6.75;;
7983;SDS011;4037;47.980;10.172;2023-06-22T11:55:47;9.50;;;6.22;;
7983;SDS011;4037;47.980;10.172;2023-06-22T11:58:14;12.57;;;6.70;;
7983;SDS011;4037;47.980;10.172;2023-06-22T12:00:40;13.48;;;6.72;;
7983;SDS011;4037;47.980;10.172;2023-06-22T12:03:06;8.73;;;5.93;;
7983;SDS011;4037;47.980;10.172;2023-06-22T12:05:32;12.25;;;5.72;;
7983;SDS011;4037;47.980;10.172;2023-06-22T12:07:58;13.40;;;6.68;;
7983;SDS011;4037;47.980;10.172;2023-06-22T12:10:27;9.90;;;6.75;;
7983;SDS011;4037;47.980;10.172;2023-06-22T12:12:54;11.45;;;5.82;;
7983;SDS011;4037;47.980;10.172;2023-06-22T12:15:20;12.05;;;5.80;;
7983;SDS011;4037;47.980;10.172;2023-06-22T12:17:46;10.15;;;4.78;;
7983;SDS011;4037;47.980;10.172;2023-06-22T12:20:13;8.75;;;4.30;;
7983;SDS011;4037;47.980;10.172;2023-06-22T12:22:40;10.63;;;4.68;;
7983;SDS011;4037;47.980;10.172;2023-06-22T12:25:06;8.85;;;4.63;;
7983;SDS011;4037;47.980;10.172;2023-06-22T12:27:32;10.02;;;4.47;;
7983;SDS011;4037;47.980;10.172;2023-06-22T12:29:58;8.85;;;4.13;;
7983;SDS011;4037;47.980;10.172;2023-06-22T12:32:24;6.10;;;4.13;;
7983;SDS011;4037;47.980;10.172;2023-06-22T12:34:51;9.25;;;4.07;;
7983;SDS011;4037;47.980;10.172;2023-06-22T12:37:17;9.32;;;4.00;;
7983;SDS011;4037;47.980;10.172;2023-06-22T12:39:43;8.00;;;4.25;;
7983;SDS011;4037;47.980;10.172;2023-06-22T12:42:09;11.25;;;4.43;;
7983;SDS011;4037;47.980;10.172;2023-06-22T12:44:39;9.13;;;3.92;;
7983;SDS011;4037;47.980;10.172;2023-06-22T12:47:06;7.43;;;4.40;;
7983;SDS011;4037;47.980;10.172;2023-06-22T12:49:33;11.70;;;4.68;;
7983;SDS011;4037;47.980;10.172;2023-06-22T12:52:00;8.05;;;3.72;;
7983;SDS011;4037;47.980;10.172;2023-06-22T12:54:26;10.68;;;4.45;;
7983;SDS011;4037;47.980;10.172;2023-06-22T12:56:53;11.75;;;3.95;;
7983;SDS011;4037;47.980;10.172;2023-06-22T12:59:19;7.97;;;3.60;;
7983;SDS011;4037;47.980;10.172;2023-06-22T13:01:45;11.07;;;4.05;;
7983;SDS011;4037;47.980;10.172;2023-06-22T13:04:11;9.68;;;4.75;;
7983;SDS011;4037;47.980;10.172;2023-06-22T13:06:44;9.93;;;4.15;;
7983;SDS011;4037;47.980;10.172;2023-06-22T13:09:13;7.40;;;3.88;;
7983;SDS011;4037;47.980;10.172;2023-06-22T13:11:39;12.15;;;4.22;;
7983;SDS011;4037;47.980;10.172;2023-06-22T13:14:05;12.57;;;5.03;;
7983;SDS011;4037;47.980;10.172;2023-06-22T13:16:31;7.50;;;4.28;;
7983;SDS011;4037;47.980;10.172;2023-06-22T13:18:57;12.82;;;4.22;;
7983;SDS011;4037;47.980;10.172;2023-06-22T13:21:23;9.80;;;4.80;;
7983;SDS011;4037;47.980;10.172;2023-06-22T13:23:49;13.07;;;4.75;;
7983;SDS011;4037;47.980;10.172;2023-06-22T13:26:15;11.27;;;4.50;;
7983;SDS011;4037;47.980;10.172;2023-06-22T13:28:41;8.80;;;4.82;;
7983;SDS011;4037;47.980;10.172;2023-06-22T13:31:07;11.60;;;4.28;;
7983;SDS011;4037;47.980;10.172;2023-06-22T13:33:33;15.10;;;4.30;;
7983;SDS011;4037;47.980;10.172;2023-06-22T13:35:59;10.48;;;4.22;;
7983;SDS011;4037;47.980;10.172;2023-06-22T13:38:25;8.10;;;4.60;;
7983;SDS011;4037;47.980;10.172;2023-06-22T13:40:51;7.97;;;4.22;;
7983;SDS011;4037;47.980;10.172;2023-06-22T13:43:20;10.93;;;5.25;;
7983;SDS011;4037;47.980;10.172;2023-06-22T13:45:46;17.55;;;5.38;;
7983;SDS011;4037;47.980;10.172;2023-06-22T13:48:12;11.10;;;5.50;;
7983;SDS011;4037;47.980;10.172;2023-06-22T13:50:38;12.05;;;4.65;;
7983;SDS011;4037;47.980;10.172;2023-06-22T13:53:04;9.02;;;4.38;;
7983;SDS011;4037;47.980;10.172;2023-06-22T13:55:30;7.55;;;4.65;;
7983;SDS011;4037;47.980;10.172;2023-06-22T13:57:56;10.13;;;5.63;;
7983;SDS011;4037;47.980;10.172;2023-06-22T14:00:22;12.13;;;5.32;;
7983;SDS011;4037;47.980;10.172;2023-06-22T14:02:48;7.85;;;5.00;;
7983;SDS011;4037;47.980;10.172;2023-06-22T14:05:14;10.77;;;5.55;;
7983;SDS011;4037;47.980;10.172;2023-06-22T14:07:40;13.18;;;4.95;;
7983;SDS011;4037;47.980;10.172;2023-06-22T14:10:06;10.63;;;4.68;;
7983;SDS011;4037;47.980;10.172;2023-06-22T14:12:32;9.13;;;4.80;;
7983;SDS011;4037;47.980;10.172;2023-06-22T14:14:58;10.27;;;6.05;;
7983;SDS011;4037;47.980;10.172;2023-06-22T14:17:24;13.30;;;4.93;;
7983;SDS011;4037;47.980;10.172;2023-06-22T14:19:51;10.68;;;5.05;;
7983;SDS011;4037;47.980;10.172;2023-06-22T14:22:20;8.23;;;4.72;;
7983;SDS011;4037;47.980;10.172;2023-06-22T14:24:47;8.43;;;4.32;;
7983;SDS011;4037;47.980;10.172;2023-06-22T14:27:13;6.40;;;4.05;;
7983;SDS011;4037;47.980;10.172;2023-06-22T14:29:39;11.38;;;5.20;;
7983;SDS011;4037;47.980;10.172;2023-06-22T14:32:06;7.47;;;4.47;;
7983;SDS011;4037;47.980;10.172;2023-06-22T14:34:32;7.80;;;4.70;;
7983;SDS011;4037;47.980;10.172;2023-06-22T14:37:00;10.35;;;4.15;;
7983;SDS011;4037;47.980;10.172;2023-06-22T14:39:26;9.80;;;4.57;;
7983;SDS011;4037;47.980;10.172;2023-06-22T14:41:52;7.45;;;3.95;;
7983;SDS011;4037;47.980;10.172;2023-06-22T14:44:18;10.75;;;4.75;;
7983;SDS011;4037;47.980;10.172;2023-06-22T14:46:44;7.90;;;4.60;;
7983;SDS011;4037;47.980;10.172;2023-06-22T14:49:10;8.80;;;4.53;;
7983;SDS011;4037;47.980;10.172;2023-06-22T14:51:36;6.57;;;3.95;;
7983;SDS011;4037;47.980;10.172;2023-06-22T14:54:02;7.22;;;3.95;;
7983;SDS011;4037;47.980;10.172;2023-06-22T14:56:29;10.27;;;4.53;;